createdAt,value
2022-09-10T00:00:54.321Z,13.87
2022-09-10T00:03:56.624Z,13.88
2022-09-10T00:06:58.457Z,13.91
2022-09-10T00:10:00.014Z,13.91
2022-09-10T00:13:01.571Z,13.93
2022-09-10T00:16:06.358Z,13.96
2022-09-10T00:19:10.261Z,13.98
2022-09-10T00:22:13.259Z,14.00
2022-09-10T00:25:15.270Z,14.00
2022-09-10T00:28:16.996Z,14.00
2022-09-10T00:31:20.479Z,14.00
2022-09-10T00:34:22.081Z,14.00
2022-09-10T00:37:23.625Z,14.00
2022-09-10T00:40:25.512Z,13.98
2022-09-10T00:43:27.122Z,13.98
2022-09-10T00:46:47.566Z,14.01
2022-09-10T00:49:55.555Z,14.01
2022-09-10T00:53:02.582Z,14.02
2022-09-10T00:56:05.246Z,14.01
2022-09-10T00:59:09.926Z,14.01
2022-09-10T01:02:12.189Z,14.03
2022-09-10T01:05:15.130Z,14.03
2022-09-10T01:08:18.493Z,14.05
2022-09-10T01:11:56.201Z,14.03
2022-09-10T01:15:03.988Z,14.04
2022-09-10T01:18:13.185Z,14.03
2022-09-10T01:21:20.778Z,14.08
2022-09-10T01:24:59.176Z,14.09
2022-09-10T01:28:08.849Z,14.04
2022-09-10T01:31:24.495Z,14.03
2022-09-10T01:34:29.728Z,14.01
2022-09-10T01:37:35.003Z,13.98
2022-09-10T01:40:37.300Z,13.98
2022-09-10T01:43:43.281Z,13.97
2022-09-10T01:46:54.734Z,13.99
2022-09-10T01:50:14.936Z,13.97
2022-09-10T01:53:43.043Z,13.96
2022-09-10T01:57:19.445Z,13.93
2022-09-10T02:00:22.278Z,13.90
2022-09-10T02:03:26.222Z,13.91
2022-09-10T02:06:30.619Z,13.92
2022-09-10T02:09:34.040Z,13.87
2022-09-10T02:12:36.900Z,13.85
2022-09-10T02:15:57.478Z,13.86
2022-09-10T02:19:02.374Z,13.86
2022-09-10T02:22:05.791Z,13.87
2022-09-10T02:25:09.857Z,13.87
2022-09-10T02:28:13.236Z,13.84
2022-09-10T02:31:15.146Z,13.86
2022-09-10T02:34:16.924Z,13.89
2022-09-10T02:37:21.596Z,13.91
2022-09-10T02:40:23.186Z,13.95
2022-09-10T02:43:26.348Z,14.00
2022-09-10T02:46:31.257Z,14.00
2022-09-10T02:49:34.627Z,14.01
2022-09-10T02:52:37.473Z,13.98
2022-09-10T02:55:41.299Z,13.95
2022-09-10T02:58:43.147Z,13.95
2022-09-10T03:01:45.061Z,13.97
2022-09-10T03:04:46.735Z,13.96
2022-09-10T03:07:48.606Z,13.96
2022-09-10T03:10:50.889Z,13.99
2022-09-10T03:13:52.546Z,13.99
2022-09-10T03:16:55.018Z,14.01
2022-09-10T03:19:59.282Z,14.00
2022-09-10T03:23:00.885Z,14.00
2022-09-10T03:26:04.391Z,13.99
2022-09-10T03:29:06.655Z,13.98
2022-09-10T03:32:13.204Z,13.98
2022-09-10T03:35:15.783Z,13.98
2022-09-10T03:38:17.451Z,13.99
2022-09-10T03:41:19.914Z,13.98
2022-09-10T03:44:22.561Z,13.98
2022-09-10T03:47:25.130Z,13.97
2022-09-10T03:50:27.827Z,13.95
2022-09-10T03:53:29.501Z,13.94
2022-09-10T03:56:32.792Z,13.92
2022-09-10T03:59:40.146Z,13.90
2022-09-10T04:02:46.097Z,13.88
2022-09-10T04:05:48.720Z,13.91
2022-09-10T04:08:52.722Z,13.90
2022-09-10T04:11:56.173Z,13.90
2022-09-10T04:14:58.697Z,13.90
2022-09-10T04:18:01.159Z,13.91
2022-09-10T04:21:03.181Z,13.94
2022-09-10T04:24:05.132Z,13.93
2022-09-10T04:27:06.714Z,13.93
2022-09-10T04:30:10.148Z,13.93
2022-09-10T04:33:14.216Z,13.91
2022-09-10T04:36:17.197Z,13.86
2022-09-10T04:39:19.647Z,13.87
2022-09-10T04:42:23.965Z,13.85
2022-09-10T04:45:27.426Z,13.83
2022-09-10T04:48:29.235Z,13.82
2022-09-10T04:51:31.064Z,13.81
2022-09-10T04:54:37.486Z,13.81
2022-09-10T04:57:39.404Z,13.82
2022-09-10T05:00:41.184Z,13.80
2022-09-10T05:03:43.594Z,13.76
2022-09-10T05:06:50.143Z,13.74
2022-09-10T05:09:51.878Z,13.74
2022-09-10T05:12:54.380Z,13.75
2022-09-10T05:15:59.391Z,13.79
2022-09-10T05:19:01.266Z,13.82
2022-09-10T05:22:06.842Z,13.85
2022-09-10T05:25:09.982Z,13.90
2022-09-10T05:28:12.887Z,13.94
2022-09-10T05:31:16.596Z,13.99
2022-09-10T05:34:19.158Z,14.01
2022-09-10T05:37:20.778Z,14.05
2022-09-10T05:40:22.921Z,14.08
2022-09-10T05:43:27.432Z,14.10
2022-09-10T05:46:30.959Z,14.13
2022-09-10T05:49:37.211Z,14.17
2022-09-10T05:52:40.188Z,14.20
2022-09-10T05:55:43.945Z,14.26
2022-09-10T05:58:45.600Z,14.33
2022-09-10T06:01:51.446Z,14.33
2022-09-10T06:04:54.944Z,14.34
2022-09-10T06:07:57.752Z,14.38
2022-09-10T06:11:02.545Z,14.45
2022-09-10T06:14:09.159Z,14.48
2022-09-10T06:17:11.190Z,14.56
2022-09-10T06:20:15.685Z,14.64
2022-09-10T06:23:19.217Z,14.68
2022-09-10T06:26:22.036Z,14.74
2022-09-10T06:29:27.636Z,14.79
2022-09-10T06:32:29.482Z,15.01
2022-09-10T06:35:32.406Z,15.27
2022-09-10T06:38:35.288Z,15.52
2022-09-10T06:41:36.994Z,15.75
2022-09-10T06:44:48.470Z,15.89
2022-09-10T06:51:33.965Z,15.85
2022-09-10T06:54:37.727Z,15.88
2022-09-10T06:57:53.808Z,15.97
2022-09-10T07:00:57.204Z,16.07
2022-09-10T07:04:01.032Z,16.13
2022-09-10T07:07:05.951Z,16.09
2022-09-10T07:10:08.407Z,16.14
2022-09-10T07:13:10.993Z,16.06
2022-09-10T07:16:18.479Z,15.94
2022-09-10T07:19:20.893Z,15.98
2022-09-10T07:22:23.046Z,16.09
2022-09-10T07:25:26.326Z,16.20
2022-09-10T07:28:39.181Z,16.14
2022-09-10T07:31:42.163Z,16.04
2022-09-10T07:34:52.265Z,15.95
2022-09-10T07:37:55.865Z,15.85
2022-09-10T07:41:01.099Z,15.81
2022-09-10T07:44:03.001Z,15.81
2022-09-10T07:47:12.050Z,15.85
2022-09-10T07:50:14.854Z,15.91
2022-09-10T07:53:17.867Z,15.98
2022-09-10T07:56:23.098Z,16.00
2022-09-10T07:59:25.244Z,16.01
2022-09-10T08:02:32.499Z,16.03
2022-09-10T08:05:39.546Z,15.99
2022-09-10T08:08:42.926Z,15.97
2022-09-10T08:11:46.837Z,15.99
2022-09-10T08:14:52.288Z,16.03
2022-09-10T08:17:55.602Z,15.98
2022-09-10T08:20:57.462Z,15.88
2022-09-10T08:24:02.733Z,15.88
2022-09-10T08:27:06.705Z,15.94
2022-09-10T08:30:09.059Z,16.01
2022-09-10T08:33:12.323Z,16.08
2022-09-10T08:36:16.913Z,16.21
2022-09-10T08:39:18.568Z,16.37
2022-09-10T08:42:26.879Z,16.46
2022-09-10T08:45:32.814Z,16.43
2022-09-10T08:48:39.777Z,16.49
2022-09-10T08:51:48.594Z,16.53
2022-09-10T08:54:56.491Z,16.55
2022-09-10T08:57:59.555Z,16.49
2022-09-10T09:01:05.125Z,16.46
2022-09-10T09:04:18.113Z,16.52
2022-09-10T09:07:21.769Z,16.45
2022-09-10T09:10:45.084Z,16.46
2022-09-10T09:13:52.083Z,16.53
2022-09-10T09:17:06.239Z,16.62
2022-09-10T09:20:42.935Z,16.67
2022-09-10T09:24:13.083Z,16.77
2022-09-10T09:27:22.752Z,16.84
2022-09-10T09:30:33.455Z,16.89
2022-09-10T09:33:38.837Z,16.94
2022-09-10T09:36:46.867Z,17.09
2022-09-10T09:40:14.572Z,17.28
2022-09-10T09:43:27.941Z,17.41
2022-09-10T09:46:29.635Z,17.69
2022-09-10T09:49:35.511Z,17.89
2022-09-10T09:52:38.565Z,17.94
2022-09-10T09:55:43.990Z,17.95
2022-09-10T09:58:50.239Z,17.90
2022-09-10T10:01:52.933Z,17.95
2022-09-10T10:05:03.648Z,18.21
2022-09-10T10:08:05.814Z,18.32
2022-09-10T10:11:09.367Z,18.39
2022-09-10T10:14:31.154Z,18.39
2022-09-10T10:17:41.117Z,18.35
2022-09-10T10:20:42.771Z,18.16
2022-09-10T10:23:44.651Z,18.13
2022-09-10T10:26:48.651Z,18.08
2022-09-10T10:30:17.434Z,18.02
2022-09-10T10:33:31.370Z,18.08
2022-09-10T10:37:00.077Z,18.16
2022-09-10T10:40:30.323Z,18.24
2022-09-10T10:43:44.328Z,18.30
2022-09-10T10:46:53.978Z,18.22
2022-09-10T10:50:17.052Z,18.22
2022-09-10T10:53:28.948Z,18.25
2022-09-10T10:56:50.711Z,18.22
2022-09-10T10:59:57.218Z,18.25
2022-09-10T11:03:10.703Z,18.34
2022-09-10T11:06:23.431Z,18.54
2022-09-10T11:09:31.264Z,18.72
2022-09-10T11:12:44.127Z,18.75
2022-09-10T11:15:59.379Z,18.62
2022-09-10T11:19:09.025Z,18.44
2022-09-10T11:22:26.035Z,18.17
2022-09-10T11:25:34.163Z,17.98
2022-09-10T11:28:56.689Z,17.80
2022-09-10T11:32:06.481Z,17.68
2022-09-10T11:35:22.108Z,17.58
2022-09-10T11:38:41.125Z,17.59
2022-09-10T11:41:46.324Z,17.73
2022-09-10T11:44:56.016Z,17.84
2022-09-10T11:48:18.600Z,18.05
2022-09-10T11:51:30.539Z,18.28
2022-09-10T11:54:35.531Z,18.37
2022-09-10T11:58:16.492Z,18.49
2022-09-10T12:01:49.458Z,18.38
2022-09-10T12:04:56.807Z,18.32
2022-09-10T12:08:23.004Z,18.32
2022-09-10T12:11:44.279Z,18.28
2022-09-10T12:14:46.137Z,18.23
2022-09-10T12:17:56.417Z,18.28
2022-09-10T12:21:02.631Z,18.37
2022-09-10T12:24:23.348Z,18.42
2022-09-10T12:28:00.636Z,18.69
2022-09-10T12:31:03.309Z,18.80
2022-09-10T12:34:17.226Z,18.88
2022-09-10T12:37:24.431Z,18.90
2022-09-10T12:40:26.099Z,18.84
2022-09-10T12:43:40.220Z,18.88
2022-09-10T12:46:45.302Z,18.84
2022-09-10T12:49:54.831Z,18.84
2022-09-10T12:53:25.103Z,18.88
2022-09-10T12:57:03.193Z,18.92
2022-09-10T13:00:13.992Z,18.88
2022-09-10T13:03:19.882Z,18.88
2022-09-10T13:06:35.865Z,18.93
2022-09-10T13:09:39.650Z,19.07
2022-09-10T13:12:44.195Z,19.19
2022-09-10T13:15:52.485Z,19.03
2022-09-10T13:19:14.070Z,18.82
2022-09-10T13:22:52.566Z,18.65
2022-09-10T13:26:33.647Z,18.53
2022-09-10T13:29:38.496Z,18.44
2022-09-10T13:32:47.812Z,18.44
2022-09-10T13:36:05.620Z,18.34
2022-09-10T13:39:50.755Z,18.20
2022-09-10T13:43:21.607Z,18.10
2022-09-10T13:46:46.686Z,18.00
2022-09-10T13:50:00.557Z,17.95
2022-09-10T13:53:08.230Z,17.89
2022-09-10T13:56:21.283Z,17.91
2022-09-10T13:59:30.806Z,17.98
2022-09-10T14:02:50.709Z,18.06
2022-09-10T14:05:57.328Z,18.13
2022-09-10T14:09:05.039Z,18.22
2022-09-10T14:12:08.404Z,18.28
2022-09-10T14:15:17.011Z,18.34
2022-09-10T14:18:20.129Z,18.35
2022-09-10T14:21:27.932Z,18.37
2022-09-10T14:24:33.625Z,18.39
2022-09-10T14:27:39.015Z,18.37
2022-09-10T14:30:40.621Z,18.31
2022-09-10T14:33:42.220Z,18.32
2022-09-10T14:36:43.850Z,18.32
2022-09-10T14:39:45.520Z,18.30
2022-09-10T14:42:49.447Z,18.30
2022-09-10T14:45:51.632Z,18.28
2022-09-10T14:49:00.090Z,18.27
2022-09-10T14:52:05.587Z,18.21
2022-09-10T14:55:07.439Z,18.24
2022-09-10T14:58:11.535Z,18.25
2022-09-10T15:01:13.305Z,18.25
2022-09-10T15:04:23.551Z,18.25
2022-09-10T15:07:25.185Z,18.16
2022-09-10T15:10:26.808Z,18.12
2022-09-10T15:13:31.195Z,18.08
2022-09-10T15:16:36.184Z,18.13
2022-09-10T15:19:43.110Z,18.14
2022-09-10T15:22:47.436Z,18.16
2022-09-10T15:25:50.933Z,18.16
2022-09-10T15:28:52.823Z,18.10
2022-09-10T15:31:59.364Z,18.07
2022-09-10T15:35:01.231Z,18.05
2022-09-10T15:38:02.917Z,18.01
2022-09-10T15:41:13.162Z,17.98
2022-09-10T15:44:14.994Z,17.92
2022-09-10T15:47:16.581Z,17.87
2022-09-10T15:50:18.228Z,17.81
2022-09-10T15:53:20.678Z,17.81
2022-09-10T15:56:27.009Z,17.80
2022-09-10T15:59:28.634Z,17.75
2022-09-10T16:02:30.249Z,17.71
2022-09-10T16:05:35.407Z,17.71
2022-09-10T16:08:37.057Z,17.69
2022-09-10T16:11:40.957Z,17.66
2022-09-10T16:14:44.387Z,17.59
2022-09-10T16:17:46.039Z,17.52
2022-09-10T16:20:47.643Z,17.47
2022-09-10T16:23:51.688Z,17.43
2022-09-10T16:26:53.319Z,17.39
2022-09-10T16:29:54.939Z,17.36
2022-09-10T16:32:56.893Z,17.29
2022-09-10T16:36:04.230Z,17.25
2022-09-10T16:39:12.203Z,17.22
2022-09-10T16:42:13.978Z,17.15
2022-09-10T16:45:15.657Z,17.14
2022-09-10T16:48:17.354Z,17.08
2022-09-10T16:51:20.838Z,17.04
2022-09-10T16:54:22.957Z,16.99
2022-09-10T16:57:24.600Z,16.98
2022-09-10T17:00:27.005Z,16.98
2022-09-10T17:03:29.955Z,16.98
2022-09-10T17:06:32.017Z,16.99
2022-09-10T17:09:36.063Z,16.98
2022-09-10T17:12:40.029Z,16.94
2022-09-10T17:15:43.158Z,16.92
2022-09-10T17:18:45.058Z,16.89
2022-09-10T17:21:51.142Z,16.86
2022-09-10T17:24:53.924Z,16.81
2022-09-10T17:27:55.694Z,16.78
2022-09-10T17:30:58.115Z,16.72
2022-09-10T17:33:59.748Z,16.68
2022-09-10T17:37:01.719Z,16.63
2022-09-10T17:40:08.689Z,16.60
2022-09-10T17:43:13.257Z,16.57
2022-09-10T17:46:22.695Z,16.52
2022-09-10T17:49:24.618Z,16.49
2022-09-10T17:52:26.670Z,16.45
2022-09-10T17:55:34.543Z,16.43
2022-09-10T17:58:39.130Z,16.39
2022-09-10T18:01:43.309Z,16.36
2022-09-10T18:04:49.071Z,16.34
2022-09-10T18:07:50.639Z,16.28
2022-09-10T18:11:02.156Z,16.30
2022-09-10T18:14:04.252Z,16.25
2022-09-10T18:17:05.926Z,16.23
2022-09-10T18:20:07.935Z,16.20
2022-09-10T18:23:09.789Z,16.14
2022-09-10T18:26:14.360Z,16.14
2022-09-10T18:29:20.784Z,16.11
2022-09-10T18:32:23.244Z,16.07
2022-09-10T18:35:27.578Z,16.04
2022-09-10T18:38:29.372Z,16.00
2022-09-10T18:41:33.286Z,15.97
2022-09-10T18:44:39.062Z,15.94
2022-09-10T18:47:44.845Z,15.89
2022-09-10T18:50:47.327Z,15.85
2022-09-10T18:53:53.120Z,15.85
2022-09-10T18:56:55.862Z,15.80
2022-09-10T18:59:57.413Z,15.75
2022-09-10T19:02:59.078Z,15.72
2022-09-10T19:06:05.304Z,15.72
2022-09-10T19:09:10.806Z,15.69
2022-09-10T19:12:18.579Z,15.60
2022-09-10T19:15:22.424Z,15.57
2022-09-10T19:18:24.323Z,15.56
2022-09-10T19:21:27.952Z,15.55
2022-09-10T19:24:54.009Z,15.53
2022-09-10T19:27:55.992Z,15.50
2022-09-10T19:31:03.127Z,15.48
2022-09-10T19:34:09.329Z,15.43
2022-09-10T19:37:11.269Z,15.38
2022-09-10T19:40:13.117Z,15.36
2022-09-10T19:43:15.671Z,15.35
2022-09-10T19:46:19.425Z,15.33
2022-09-10T19:49:23.388Z,15.27
2022-09-10T19:52:25.594Z,15.23
2022-09-10T19:55:27.186Z,15.21
2022-09-10T19:58:28.801Z,15.17
2022-09-10T20:01:33.086Z,15.18
2022-09-10T20:04:36.949Z,15.17
2022-09-10T20:07:39.585Z,15.14
2022-09-10T20:10:49.603Z,15.16
2022-09-10T20:13:57.017Z,15.13
2022-09-10T20:16:59.280Z,15.13
2022-09-10T20:20:03.853Z,15.11
2022-09-10T20:23:05.463Z,15.11
2022-09-10T20:26:15.886Z,15.15
2022-09-10T20:29:19.305Z,15.12
2022-09-10T20:32:21.439Z,15.12
2022-09-10T20:35:23.084Z,15.10
2022-09-10T20:38:25.782Z,15.06
2022-09-10T20:41:31.444Z,15.05
2022-09-10T20:44:33.146Z,15.02
2022-09-10T20:47:42.862Z,15.00
2022-09-10T20:51:00.651Z,14.97
2022-09-10T20:54:04.478Z,14.95
2022-09-10T20:57:06.138Z,14.93
2022-09-10T21:00:08.634Z,14.92
2022-09-10T21:03:10.206Z,14.89
2022-09-10T21:06:14.092Z,14.87
2022-09-10T21:09:15.802Z,14.81
2022-09-10T21:12:17.735Z,14.72
2022-09-10T21:15:19.503Z,14.66
2022-09-10T21:18:21.154Z,14.64
2022-09-10T21:21:28.153Z,14.61
2022-09-10T21:24:29.786Z,14.57
2022-09-10T21:27:32.105Z,14.52
2022-09-10T21:30:33.669Z,14.49
2022-09-10T21:33:36.631Z,14.46
2022-09-10T21:36:40.110Z,14.44
2022-09-10T21:39:41.789Z,14.39
2022-09-10T21:42:44.256Z,14.34
2022-09-10T21:45:46.347Z,14.29
2022-09-10T21:48:48.036Z,14.23
2022-09-10T21:51:50.197Z,14.20
2022-09-10T21:54:51.798Z,14.18
2022-09-10T21:57:53.437Z,14.09
2022-09-10T22:00:59.995Z,14.06
2022-09-10T22:04:02.001Z,14.02
2022-09-10T22:07:04.667Z,13.97
2022-09-10T22:10:06.841Z,13.96
2022-09-10T22:13:09.212Z,13.94
2022-09-10T22:16:13.888Z,13.91
2022-09-10T22:19:19.392Z,13.87
2022-09-10T22:22:21.046Z,13.81
2022-09-10T22:25:25.412Z,13.78
2022-09-10T22:28:27.099Z,13.74
2022-09-10T22:31:33.618Z,13.78
2022-09-10T22:34:36.566Z,13.76
2022-09-10T22:37:38.188Z,13.76
2022-09-10T22:40:39.853Z,13.73
2022-09-10T22:43:42.771Z,13.69
2022-09-10T22:46:44.520Z,13.64
2022-09-10T22:49:47.548Z,13.61
2022-09-10T22:52:49.183Z,13.58
2022-09-10T22:55:50.885Z,13.55
2022-09-10T22:58:54.113Z,13.53
2022-09-10T23:01:55.837Z,13.49
2022-09-10T23:04:57.488Z,13.45
2022-09-10T23:07:59.107Z,13.43
2022-09-10T23:11:19.451Z,13.40
2022-09-10T23:14:22.076Z,13.33
2022-09-10T23:17:23.751Z,13.34
2022-09-10T23:20:27.182Z,13.33
2022-09-10T23:23:28.758Z,13.27
2022-09-10T23:26:30.458Z,13.23
2022-09-10T23:29:32.037Z,13.24
2022-09-10T23:32:33.739Z,13.21
2022-09-10T23:35:35.390Z,13.19
2022-09-10T23:38:37.407Z,13.17
2022-09-10T23:41:39.606Z,13.19
2022-09-10T23:44:41.235Z,13.16
2022-09-10T23:47:42.938Z,13.16
2022-09-10T23:50:44.903Z,13.17
2022-09-10T23:53:48.021Z,13.16
2022-09-10T23:56:49.654Z,13.14
2022-09-10T23:59:51.306Z,13.09
